Time;durP1;ratioP1;P1;durP2;ratioP2;P2;SDS_P1;SDS_P2;PMS_P1;PMS_P2;Temp;Humidity;BMP_temperature;BMP_pressure;BME280_temperature;BME280_humidity;BME280_pressure;Samples;Min_cycle;Max_cycle;Signal;HPM_P1;HPM_P2
2021/01/22 00:02:05;;;;;;;1.40;1.30;;;11.90;36.30;;;;;;5011268;28;20544;-67
2021/01/22 00:04:31;;;;;;;1.93;1.50;;;11.80;36.50;;;;;;5011287;28;20181;-66
2021/01/22 00:06:57;;;;;;;1.83;1.70;;;11.80;36.50;;;;;;5009727;28;20212;-66
2021/01/22 00:09:22;;;;;;;1.47;1.37;;;11.90;36.70;;;;;;5009826;28;20192;-66
2021/01/22 00:11:48;;;;;;;2.23;1.47;;;11.80;35.80;;;;;;5009918;28;20923;-66
2021/01/22 00:14:13;;;;;;;4.77;1.70;;;11.80;36.40;;;;;;5010045;28;20241;-66
2021/01/22 00:16:39;;;;;;;1.67;1.57;;;11.70;37.00;;;;;;5009916;28;20200;-66
2021/01/22 00:19:05;;;;;;;1.60;1.50;;;11.70;36.90;;;;;;5009759;28;20173;-66
2021/01/22 00:21:30;;;;;;;1.40;1.30;;;11.70;36.40;;;;;;5011195;28;20417;-66
2021/01/22 00:23:57;;;;;;;1.57;1.47;;;11.60;37.80;;;;;;5011630;28;20599;-66
2021/01/22 00:26:22;;;;;;;1.97;1.80;;;11.60;37.70;;;;;;5011491;28;20201;-66
2021/01/22 00:28:48;;;;;;;1.50;1.40;;;11.50;37.90;;;;;;5011399;28;20408;-66
2021/01/22 00:31:13;;;;;;;1.30;1.30;;;11.40;37.90;;;;;;5011494;28;20251;-66
2021/01/22 00:33:39;;;;;;;2.00;1.80;;;11.30;38.20;;;;;;5011441;28;20170;-66
2021/01/22 00:36:05;;;;;;;1.50;1.50;;;11.20;39.00;;;;;;5011304;28;20676;-66
2021/01/22 00:38:30;;;;;;;1.70;1.63;;;11.30;38.90;;;;;;5011273;28;20216;-66
2021/01/22 00:40:56;;;;;;;1.33;1.30;;;11.10;39.00;;;;;;5011301;28;20257;-66
2021/01/22 00:43:21;;;;;;;1.57;1.47;;;11.20;39.90;;;;;;5011268;28;20185;-66
2021/01/22 00:45:47;;;;;;;2.03;1.60;;;11.30;39.10;;;;;;5011220;28;20264;-66
2021/01/22 00:48:12;;;;;;;1.17;1.17;;;11.30;39.10;;;;;;5011035;28;20208;-66
2021/01/22 00:50:38;;;;;;;1.47;1.37;;;11.20;39.00;;;;;;5011179;28;20600;-66
2021/01/22 00:53:03;;;;;;;1.80;1.57;;;11.10;38.90;;;;;;5011208;28;20538;-66
2021/01/22 00:55:29;;;;;;;1.40;1.30;;;11.10;38.80;;;;;;5015261;28;20200;-66
2021/01/22 00:57:54;;;;;;;1.70;1.60;;;11.00;39.10;;;;;;5017401;28;20181;-66
2021/01/22 01:00:20;;;;;;;1.57;1.47;;;11.10;39.30;;;;;;5017627;28;20177;-66
2021/01/22 01:02:46;;;;;;;1.47;1.37;;;10.90;39.70;;;;;;5017723;28;20181;-66
2021/01/22 01:05:11;;;;;;;1.30;1.27;;;10.90;39.50;;;;;;5017549;28;20493;-66
2021/01/22 01:07:37;;;;;;;1.93;1.83;;;11.00;39.60;;;;;;5017395;28;20242;-66
2021/01/22 01:10:04;;;;;;;1.53;1.43;;;11.00;39.80;;;;;;5017611;28;20582;-66
2021/01/22 01:12:30;;;;;;;1.53;1.43;;;11.00;39.60;;;;;;5017758;28;20181;-66
2021/01/22 01:14:55;;;;;;;1.53;1.43;;;10.90;39.40;;;;;;5017644;28;20915;-66
2021/01/22 01:17:21;;;;;;;1.23;1.13;;;11.00;39.00;;;;;;5017461;28;20201;-66
2021/01/22 01:19:46;;;;;;;1.53;1.37;;;11.00;38.90;;;;;;5017834;28;20247;-66
2021/01/22 01:22:12;;;;;;;1.27;1.27;;;10.80;39.00;;;;;;5018020;28;20174;-66
2021/01/22 01:24:38;;;;;;;1.20;1.20;;;10.90;39.10;;;;;;5017535;28;20189;-66
2021/01/22 01:27:03;;;;;;;1.80;1.70;;;10.90;38.90;;;;;;5016365;28;20452;-66
2021/01/22 01:29:29;;;;;;;1.73;1.63;;;11.00;38.50;;;;;;5017620;28;20174;-66
2021/01/22 01:31:54;;;;;;;1.37;1.27;;;11.10;38.80;;;;;;5017523;28;20269;-66
2021/01/22 01:34:20;;;;;;;2.97;1.30;;;11.00;38.20;;;;;;5017618;28;20559;-66
2021/01/22 01:36:45;;;;;;;0.97;0.97;;;11.10;38.10;;;;;;5017340;28;20251;-66
2021/01/22 01:39:11;;;;;;;1.37;1.20;;;11.10;37.90;;;;;;5017178;28;20173;-67
2021/01/22 01:41:36;;;;;;;1.30;1.20;;;11.00;37.70;;;;;;5017324;28;20173;-66
2021/01/22 01:44:02;;;;;;;1.63;1.53;;;11.00;39.20;;;;;;5017293;28;20180;-66
2021/01/22 01:46:27;;;;;;;1.40;1.30;;;11.10;38.60;;;;;;5016972;28;20200;-66
2021/01/22 01:48:53;;;;;;;1.20;1.20;;;10.90;38.20;;;;;;5017033;28;20170;-66
2021/01/22 01:51:19;;;;;;;1.30;1.20;;;10.90;38.30;;;;;;5017262;28;20169;-66
2021/01/22 01:53:45;;;;;;;1.03;1.03;;;10.90;38.60;;;;;;5017125;28;20435;-66
2021/01/22 01:56:11;;;;;;;1.40;1.30;;;10.90;38.50;;;;;;5017120;28;20272;-66
2021/01/22 01:58:36;;;;;;;1.20;1.20;;;11.00;38.70;;;;;;5016855;28;20178;-67
2021/01/22 02:01:02;;;;;;;1.20;1.20;;;10.90;38.40;;;;;;5017009;28;20413;-66
2021/01/22 02:03:29;;;;;;;1.70;1.60;;;10.90;38.50;;;;;;5016984;28;20166;-66
2021/01/22 02:05:54;;;;;;;1.50;1.40;;;10.90;38.50;;;;;;5016188;28;20953;-66
2021/01/22 02:08:20;;;;;;;1.60;1.50;;;10.80;38.60;;;;;;5013788;28;20408;-66
2021/01/22 02:10:46;;;;;;;1.50;1.40;;;10.80;38.50;;;;;;5013884;28;20268;-66
2021/01/22 02:13:12;;;;;;;1.37;1.27;;;10.90;38.60;;;;;;5014059;28;20551;-66
2021/01/22 02:15:39;;;;;;;1.27;1.20;;;10.90;38.30;;;;;;5013864;28;20959;-66
2021/01/22 02:18:06;;;;;;;1.40;1.40;;;10.90;37.80;;;;;;5013673;28;20412;-66
2021/01/22 02:21:03;;;;;;;1.47;1.37;;;10.90;37.80;;;;;;5013768;28;20491;-66
2021/01/22 02:23:32;;;;;;;1.60;1.50;;;10.80;38.60;;;;;;5013691;28;20837;-66
2021/01/22 02:26:13;;;;;;;1.73;1.63;;;10.80;37.80;;;;;;5013531;28;20938;-66
2021/01/22 02:28:39;;;;;;;1.70;1.60;;;10.80;37.90;;;;;;5013487;28;20495;-66
2021/01/22 02:31:05;;;;;;;1.40;1.30;;;10.70;38.00;;;;;;5013600;28;20424;-66
2021/01/22 02:33:33;;;;;;;1.37;1.30;;;10.70;37.90;;;;;;5013611;28;20413;-66
2021/01/22 02:35:58;;;;;;;1.70;1.60;;;10.70;37.80;;;;;;5013474;28;20212;-66
2021/01/22 02:38:24;;;;;;;1.53;1.43;;;10.70;37.80;;;;;;5013318;28;20566;-66
2021/01/22 02:40:56;;;;;;;1.60;1.50;;;10.80;38.40;;;;;;5013575;28;20645;-66
2021/01/22 02:43:22;;;;;;;2.13;1.57;;;10.80;37.50;;;;;;5013689;28;20397;-66
2021/01/22 02:45:51;;;;;;;1.70;1.60;;;10.90;37.40;;;;;;5013398;28;20443;-66
2021/01/22 02:48:17;;;;;;;1.70;1.60;;;11.00;37.70;;;;;;5013209;28;20507;-66
2021/01/22 02:50:42;;;;;;;2.03;1.70;;;10.80;37.30;;;;;;5013390;28;20423;-66
2021/01/22 02:53:08;;;;;;;1.63;1.53;;;10.70;37.80;;;;;;5013328;28;20427;-66
2021/01/22 02:55:35;;;;;;;1.33;1.30;;;10.80;37.50;;;;;;5013074;28;20204;-66
2021/01/22 02:58:24;;;;;;;2.00;1.80;;;10.90;37.80;;;;;;5012863;28;20186;-66
2021/01/22 03:00:54;;;;;;;1.37;1.27;;;10.90;37.10;;;;;;5012988;28;20412;-67
2021/01/22 03:03:51;;;;;;;1.77;1.67;;;10.90;37.00;;;;;;5012985;28;20405;-66
2021/01/22 03:06:23;;;;;;;1.70;1.60;;;10.80;37.20;;;;;;5012701;28;20456;-66
2021/01/22 03:08:53;;;;;;;2.20;1.83;;;10.70;37.50;;;;;;5012701;28;20923;-66
2021/01/22 03:11:20;;;;;;;1.60;1.50;;;10.60;37.70;;;;;;5012718;28;20423;-66
2021/01/22 03:13:48;;;;;;;2.20;1.90;;;10.70;37.50;;;;;;5012742;28;20492;-66
2021/01/22 03:16:14;;;;;;;1.70;1.60;;;10.70;37.60;;;;;;5012620;28;20451;-66
2021/01/22 03:18:56;;;;;;;2.10;1.90;;;10.80;37.80;;;;;;5012008;28;20483;-66
2021/01/22 03:21:22;;;;;;;1.77;1.50;;;10.70;37.40;;;;;;5012644;28;20788;-66
2021/01/22 03:23:47;;;;;;;3.13;1.90;;;10.70;38.00;;;;;;5012471;28;20424;-66
2021/01/22 03:26:13;;;;;;;2.23;1.73;;;10.60;37.40;;;;;;5012415;28;20198;-66
2021/01/22 03:28:38;;;;;;;1.83;1.70;;;10.70;37.90;;;;;;5012353;28;20165;-66
2021/01/22 03:31:04;;;;;;;1.50;1.40;;;10.80;37.00;;;;;;5012487;28;20178;-66
2021/01/22 03:33:29;;;;;;;1.80;1.70;;;10.50;37.50;;;;;;5012458;28;20166;-66
2021/01/22 03:35:55;;;;;;;1.67;1.57;;;10.50;37.70;;;;;;5012245;28;20197;-66
2021/01/22 03:38:21;;;;;;;1.60;1.50;;;10.50;37.60;;;;;;5012220;28;20181;-66
2021/01/22 03:40:46;;;;;;;1.77;1.67;;;10.60;37.40;;;;;;5012370;28;20193;-66
2021/01/22 03:43:12;;;;;;;1.90;1.80;;;10.60;37.40;;;;;;5012263;28;20440;-66
2021/01/22 03:45:37;;;;;;;5.23;2.40;;;10.50;37.60;;;;;;5012109;28;20561;-66
2021/01/22 03:48:03;;;;;;;5.33;2.43;;;10.50;38.10;;;;;;5012039;28;20266;-66
2021/01/22 03:50:29;;;;;;;2.00;1.87;;;10.40;37.80;;;;;;5012337;28;20173;-66
2021/01/22 03:52:54;;;;;;;3.83;1.90;;;10.50;37.90;;;;;;5012129;28;20424;-67
2021/01/22 03:55:20;;;;;;;2.00;1.83;;;10.50;37.50;;;;;;5012028;28;20284;-66
2021/01/22 03:57:45;;;;;;;1.83;1.60;;;10.40;37.50;;;;;;5011859;28;20295;-66
2021/01/22 04:00:11;;;;;;;2.10;1.90;;;10.40;37.60;;;;;;5011907;28;20185;-66
2021/01/22 04:02:37;;;;;;;4.07;2.20;;;10.30;37.70;;;;;;5011906;28;20236;-66
2021/01/22 04:05:03;;;;;;;1.77;1.67;;;10.30;38.00;;;;;;5011710;28;20416;-66
2021/01/22 04:07:29;;;;;;;2.03;1.90;;;10.30;37.70;;;;;;5011359;28;20201;-66
2021/01/22 04:09:55;;;;;;;3.20;1.90;;;10.30;37.40;;;;;;5011631;28;20499;-66
2021/01/22 04:12:20;;;;;;;2.30;1.60;;;10.40;37.30;;;;;;5011722;28;20181;-66
2021/01/22 04:14:46;;;;;;;1.83;1.73;;;10.40;37.40;;;;;;5011626;28;20177;-66
2021/01/22 04:17:11;;;;;;;2.37;1.67;;;10.40;37.50;;;;;;5011329;28;20208;-66
2021/01/22 04:19:37;;;;;;;6.97;1.87;;;10.40;37.40;;;;;;5011442;28;20197;-66
2021/01/22 04:22:02;;;;;;;1.87;1.70;;;10.40;36.80;;;;;;5011327;28;20256;-66
2021/01/22 04:24:28;;;;;;;3.63;1.90;;;10.40;36.50;;;;;;5011227;28;20193;-66
2021/01/22 04:26:53;;;;;;;4.07;1.93;;;10.50;36.20;;;;;;5011171;28;20213;-66
2021/01/22 04:29:19;;;;;;;1.90;1.80;;;10.50;35.80;;;;;;5010077;28;20703;-66
2021/01/22 04:31:44;;;;;;;2.30;2.10;;;10.50;35.50;;;;;;5011454;28;20172;-66
2021/01/22 04:34:10;;;;;;;2.50;2.03;;;10.60;35.10;;;;;;5011066;28;20173;-66
2021/01/22 04:36:36;;;;;;;4.60;1.90;;;10.60;35.10;;;;;;5011154;28;20680;-66
2021/01/22 04:39:04;;;;;;;2.93;2.00;;;10.60;35.20;;;;;;5011047;28;20165;-66
2021/01/22 04:41:31;;;;;;;1.87;1.67;;;10.70;35.00;;;;;;5011136;28;20660;-66
2021/01/22 04:43:56;;;;;;;3.60;1.83;;;10.70;35.00;;;;;;5011149;28;20919;-66
2021/01/22 04:46:23;;;;;;;2.47;1.90;;;10.50;34.40;;;;;;5010964;28;20459;-66
2021/01/22 04:48:49;;;;;;;1.70;1.60;;;10.60;35.10;;;;;;5011021;28;20166;-66
2021/01/22 04:51:16;;;;;;;1.90;1.80;;;10.60;34.40;;;;;;5011185;28;20420;-66
2021/01/22 04:53:45;;;;;;;1.43;1.33;;;10.80;34.20;;;;;;5011073;28;20825;-66
2021/01/22 04:56:13;;;;;;;2.30;1.87;;;10.80;34.30;;;;;;5011059;28;20472;-66
2021/01/22 04:58:42;;;;;;;1.90;1.70;;;10.60;34.60;;;;;;5010805;28;20401;-66
2021/01/22 05:01:08;;;;;;;3.30;1.83;;;10.80;34.80;;;;;;5011339;28;20401;-66
2021/01/22 05:03:34;;;;;;;2.30;1.47;;;10.70;34.50;;;;;;5011073;28;20551;-66
2021/01/22 05:05:59;;;;;;;2.27;1.70;;;10.60;35.10;;;;;;5010970;28;20435;-67
2021/01/22 05:08:25;;;;;;;1.60;1.50;;;10.70;34.90;;;;;;5007107;28;20173;-66
2021/01/22 05:10:51;;;;;;;1.87;1.73;;;10.70;34.80;;;;;;5010530;28;20298;-66
2021/01/22 05:13:17;;;;;;;2.87;1.83;;;10.80;34.60;;;;;;5014419;28;20418;-67
2021/01/22 05:16:02;;;;;;;3.53;1.60;;;10.90;34.60;;;;;;5019074;28;20198;-67
2021/01/22 05:18:30;;;;;;;1.67;1.50;;;10.90;34.00;;;;;;5025127;28;20183;-66
2021/01/22 05:20:55;;;;;;;2.70;1.70;;;10.80;34.80;;;;;;5030353;28;20426;-66
2021/01/22 05:23:32;;;;;;;1.47;1.40;;;10.70;35.10;;;;;;5030139;28;20427;-66
2021/01/22 05:26:02;;;;;;;1.30;1.30;;;10.70;35.10;;;;;;5029788;28;20204;-66
2021/01/22 05:28:38;;;;;;;1.47;1.37;;;10.80;35.60;;;;;;5030091;28;20457;-66
2021/01/22 05:31:06;;;;;;;1.70;1.30;;;10.80;35.50;;;;;;5028133;28;20443;-68
2021/01/22 05:33:32;;;;;;;2.00;1.60;;;10.80;35.30;;;;;;5020600;28;20957;-67
2021/01/22 05:35:58;;;;;;;1.77;1.43;;;10.70;35.70;;;;;;5018740;28;20447;-66
2021/01/22 05:38:54;;;;;;;2.10;1.60;;;10.70;35.80;;;;;;5029884;28;20650;-65
2021/01/22 05:41:21;;;;;;;1.50;1.40;;;10.80;35.50;;;;;;5022805;28;20279;-66
2021/01/22 05:43:47;;;;;;;2.10;1.90;;;10.70;35.90;;;;;;5034017;28;20465;-66
2021/01/22 05:46:18;;;;;;;1.40;1.30;;;10.90;35.90;;;;;;5033646;28;20794;-66
2021/01/22 05:48:44;;;;;;;1.60;1.37;;;10.80;35.90;;;;;;5033195;28;20549;-66
2021/01/22 05:51:11;;;;;;;1.37;1.23;;;10.80;35.70;;;;;;5033721;28;20411;-66
2021/01/22 05:53:48;;;;;;;1.53;1.43;;;10.80;36.30;;;;;;5033793;28;20418;-65
2021/01/22 05:56:18;;;;;;;2.07;1.97;;;10.80;35.90;;;;;;5033289;28;20427;-66
2021/01/22 05:58:46;;;;;;;2.20;1.70;;;10.90;36.80;;;;;;5033283;28;20594;-65
2021/01/22 06:01:12;;;;;;;1.47;1.40;;;10.90;36.00;;;;;;5033337;28;20502;-66
2021/01/22 06:03:40;;;;;;;1.60;1.50;;;10.70;35.70;;;;;;5033130;28;20782;-66
2021/01/22 06:06:08;;;;;;;1.30;1.30;;;10.70;36.10;;;;;;5033518;28;20431;-65
2021/01/22 06:08:45;;;;;;;1.57;1.47;;;10.70;36.10;;;;;;5033412;28;20419;-66
2021/01/22 06:11:11;;;;;;;1.30;1.30;;;10.70;35.90;;;;;;5033568;28;20418;-66
2021/01/22 06:13:38;;;;;;;1.30;1.20;;;10.80;36.20;;;;;;5030657;28;20416;-65
2021/01/22 06:16:04;;;;;;;1.40;1.30;;;10.80;36.20;;;;;;5013600;28;20189;-66
2021/01/22 06:18:31;;;;;;;1.93;1.30;;;10.60;36.10;;;;;;5013554;28;20408;-66
2021/01/22 06:21:12;;;;;;;1.50;1.40;;;10.80;36.00;;;;;;5023347;28;20903;-66
2021/01/22 06:23:39;;;;;;;4.30;1.47;;;10.90;35.40;;;;;;5013543;28;20907;-66
2021/01/22 06:26:05;;;;;;;3.00;1.80;;;10.80;36.80;;;;;;5016143;28;20814;-66
2021/01/22 06:28:32;;;;;;;4.37;1.47;;;10.90;35.20;;;;;;5023898;28;20411;-66
2021/01/22 06:30:58;;;;;;;3.27;2.23;;;10.90;35.90;;;;;;5021476;28;20926;-66
2021/01/22 06:33:24;;;;;;;2.60;1.90;;;10.90;35.70;;;;;;5013482;28;20415;-66
2021/01/22 06:35:50;;;;;;;1.50;1.50;;;10.80;35.90;;;;;;5017579;28;20447;-66
2021/01/22 06:38:20;;;;;;;3.93;1.50;;;10.80;35.80;;;;;;5018558;28;20454;-64
2021/01/22 06:40:46;;;;;;;1.77;1.67;;;10.80;35.30;;;;;;5013324;28;20416;-65
2021/01/22 06:43:11;;;;;;;1.67;1.57;;;10.70;35.80;;;;;;5013148;28;20408;-64
2021/01/22 06:45:38;;;;;;;1.70;1.50;;;10.80;36.30;;;;;;5013046;28;20705;-64
2021/01/22 06:48:06;;;;;;;1.93;1.80;;;10.80;35.70;;;;;;5012849;28;20216;-64
2021/01/22 06:50:33;;;;;;;2.17;1.57;;;10.80;36.40;;;;;;5013095;28;20415;-64
2021/01/22 06:53:12;;;;;;;1.60;1.50;;;10.70;35.70;;;;;;5012043;28;20416;-65
2021/01/22 06:55:53;;;;;;;1.80;1.53;;;10.70;36.00;;;;;;5012827;28;20796;-64
2021/01/22 06:58:25;;;;;;;2.97;1.40;;;10.70;35.70;;;;;;5012880;28;20467;-65
2021/01/22 07:00:56;;;;;;;2.07;1.97;;;10.70;36.10;;;;;;5012832;28;20478;-65
2021/01/22 07:03:37;;;;;;;1.70;1.60;;;10.80;36.10;;;;;;5012780;28;20404;-65
2021/01/22 07:06:07;;;;;;;1.80;1.70;;;10.80;35.70;;;;;;5012432;28;20436;-67
2021/01/22 07:08:55;;;;;;;1.20;1.20;;;10.90;35.30;;;;;;5012487;28;20417;-66
2021/01/22 07:11:21;;;;;;;2.53;2.20;;;10.80;35.90;;;;;;5012409;28;20899;-67
2021/01/22 07:13:47;;;;;;;2.93;1.97;;;10.90;35.90;;;;;;5012396;28;20423;-66
2021/01/22 07:16:18;;;;;;;1.17;1.03;;;10.80;35.40;;;;;;5012493;28;20424;-69
2021/01/22 07:18:52;;;;;;;3.70;1.30;;;10.90;35.20;;;;;;5012536;28;20552;-66
2021/01/22 07:21:41;;;;;;;2.20;1.40;;;10.90;35.50;;;;;;5012463;28;20395;-64
2021/01/22 07:24:13;;;;;;;2.50;1.80;;;11.20;42.70;;;;;;5012343;28;20432;-67
2021/01/22 07:26:45;;;;;;;3.90;1.60;;;13.60;38.50;;;;;;5012215;28;20816;-66
2021/01/22 07:29:27;;;;;;;2.30;2.10;;;14.30;37.20;;;;;;5012016;28;20424;-67
2021/01/22 07:31:56;;;;;;;1.83;1.40;;;14.40;29.10;;;;;;5012281;28;20435;-68
2021/01/22 07:34:38;;;;;;;1.90;1.40;;;14.10;30.30;;;;;;5012206;28;20841;-66
2021/01/22 07:37:08;;;;;;;5.07;1.53;;;14.60;30.00;;;;;;5011968;28;20440;-68
2021/01/22 07:39:34;;;;;;;3.13;1.60;;;14.90;29.70;;;;;;5012301;28;20398;-67
2021/01/22 07:42:13;;;;;;;2.13;1.50;;;14.50;30.60;;;;;;5012244;28;20417;-67
2021/01/22 07:44:40;;;;;;;1.40;1.30;;;15.20;29.60;;;;;;5012319;28;20411;-69
2021/01/22 07:47:07;;;;;;;2.43;1.37;;;15.00;27.00;;;;;;5011518;28;20852;-66
2021/01/22 07:49:33;;;;;;;1.97;1.50;;;14.80;28.00;;;;;;5011817;28;20440;-66
2021/01/22 07:52:01;;;;;;;1.57;1.40;;;14.50;27.80;;;;;;5011750;28;20451;-66
2021/01/22 07:54:27;;;;;;;3.10;1.80;;;13.60;27.70;;;;;;5011800;28;20404;-66
2021/01/22 07:56:52;;;;;;;5.27;1.80;;;12.60;29.30;;;;;;5011611;28;20444;-66
2021/01/22 07:59:18;;;;;;;5.03;1.50;;;12.10;30.50;;;;;;5011569;28;20408;-68
2021/01/22 08:01:44;;;;;;;2.77;1.40;;;11.80;31.70;;;;;;5011486;28;20185;-67
2021/01/22 08:04:09;;;;;;;2.77;2.57;;;11.70;32.00;;;;;;5011322;28;20177;-68
2021/01/22 08:06:48;;;;;;;4.13;1.40;;;11.50;32.80;;;;;;5020132;28;20566;-67
2021/01/22 08:09:14;;;;;;;1.40;1.30;;;11.50;32.80;;;;;;5030525;28;20176;-67
2021/01/22 08:11:40;;;;;;;1.90;1.30;;;11.20;32.60;;;;;;5031066;28;20408;-65
2021/01/22 08:14:07;;;;;;;2.20;1.80;;;11.30;33.10;;;;;;5031189;28;20419;-66
2021/01/22 08:16:34;;;;;;;3.23;1.63;;;11.50;32.80;;;;;;5031034;28;20436;-67
2021/01/22 08:19:00;;;;;;;3.20;1.80;;;11.40;32.80;;;;;;5031068;28;20407;-66
2021/01/22 08:21:30;;;;;;;1.97;1.67;;;11.50;33.40;;;;;;5031115;28;20419;-66
2021/01/22 08:23:57;;;;;;;2.50;2.00;;;11.50;33.30;;;;;;5031064;28;20435;-66
2021/01/22 08:26:23;;;;;;;1.47;1.37;;;11.50;32.80;;;;;;5030918;28;20831;-67
2021/01/22 08:28:51;;;;;;;2.13;1.40;;;11.60;33.20;;;;;;5030740;28;20412;-66
2021/01/22 08:31:17;;;;;;;1.33;1.23;;;11.50;33.30;;;;;;5030857;28;20658;-65
2021/01/22 08:33:43;;;;;;;4.00;1.47;;;11.50;32.80;;;;;;5030948;28;20447;-67
2021/01/22 08:36:09;;;;;;;1.73;1.50;;;11.50;34.00;;;;;;5030786;28;20508;-66
2021/01/22 08:38:36;;;;;;;1.47;1.37;;;11.40;33.60;;;;;;5030637;28;20161;-66
2021/01/22 08:41:01;;;;;;;2.17;1.60;;;11.50;33.40;;;;;;5030750;28;20403;-66
2021/01/22 08:43:27;;;;;;;1.60;1.50;;;11.60;33.60;;;;;;5030711;28;20777;-67
2021/01/22 08:46:11;;;;;;;2.10;1.50;;;11.60;32.90;;;;;;5030699;28;20196;-66
2021/01/22 08:48:37;;;;;;;7.33;2.43;;;11.70;33.00;;;;;;5030306;28;20185;-68
2021/01/22 08:51:04;;;;;;;1.80;1.70;;;11.70;33.00;;;;;;5030714;28;20407;-66
2021/01/22 08:53:30;;;;;;;5.17;1.83;;;11.70;32.70;;;;;;5030480;28;20430;-66
2021/01/22 08:56:15;;;;;;;1.90;1.80;;;11.80;33.10;;;;;;5030527;28;20431;-67
2021/01/22 08:59:03;;;;;;;2.43;1.93;;;11.80;33.10;;;;;;5030390;28;20172;-67
2021/01/22 09:01:51;;;;;;;1.40;1.30;;;12.00;32.10;;;;;;5021248;28;20421;-67
2021/01/22 09:04:27;;;;;;;2.40;1.70;;;12.00;31.60;;;;;;5010957;28;20468;-66
2021/01/22 09:06:59;;;;;;;7.67;1.73;;;12.20;31.30;;;;;;5010800;28;20546;-65
2021/01/22 09:09:41;;;;;;;2.47;1.40;;;12.20;31.20;;;;;;5009723;28;20763;-66
2021/01/22 09:12:18;;;;;;;5.23;2.13;;;12.20;30.70;;;;;;5010768;28;20412;-65
2021/01/22 09:14:48;;;;;;;4.13;2.20;;;12.10;31.40;;;;;;5010651;28;20411;-66
2021/01/22 09:17:41;;;;;;;2.53;1.40;;;12.10;31.20;;;;;;5013686;28;20480;-66
2021/01/22 09:20:25;;;;;;;1.67;1.57;;;12.20;31.50;;;;;;5012979;28;20462;-65
2021/01/22 09:22:55;;;;;;;1.80;1.70;;;12.10;31.40;;;;;;5014461;28;20847;-65
2021/01/22 09:25:23;;;;;;;3.10;1.70;;;11.90;32.00;;;;;;5014402;28;20782;-67
2021/01/22 09:27:49;;;;;;;5.03;1.80;;;12.10;32.70;;;;;;5014605;28;20470;-67
2021/01/22 09:30:17;;;;;;;2.60;2.00;;;12.10;31.80;;;;;;5014373;28;20416;-67
2021/01/22 09:32:51;;;;;;;1.77;1.67;;;12.10;31.70;;;;;;5014252;28;20396;-67
2021/01/22 09:35:17;;;;;;;1.47;1.37;;;12.20;31.60;;;;;;5021249;28;20429;-66
2021/01/22 09:37:43;;;;;;;2.37;2.17;;;12.10;31.30;;;;;;5033510;28;20458;-66
2021/01/22 09:40:09;;;;;;;6.70;1.50;;;12.30;31.30;;;;;;5034368;28;20438;-66
2021/01/22 09:42:35;;;;;;;3.40;1.70;;;12.50;30.50;;;;;;5034121;28;20411;-67
2021/01/22 09:45:02;;;;;;;2.93;1.67;;;12.60;30.20;;;;;;5034034;28;20510;-67
2021/01/22 09:47:27;;;;;;;2.00;1.80;;;12.70;30.00;;;;;;5033700;28;20489;-65
2021/01/22 09:49:53;;;;;;;1.97;1.80;;;12.70;30.20;;;;;;5033954;28;20403;-67
2021/01/22 09:52:18;;;;;;;4.70;1.50;;;12.70;30.00;;;;;;5033870;28;20222;-66
2021/01/22 09:54:48;;;;;;;2.30;1.67;;;12.80;29.90;;;;;;5034092;28;20248;-66
2021/01/22 09:57:14;;;;;;;4.83;2.87;;;12.70;29.80;;;;;;5033507;28;20257;-67
2021/01/22 09:59:39;;;;;;;1.60;1.50;;;12.80;30.50;;;;;;5033456;28;20415;-67
2021/01/22 10:02:05;;;;;;;2.37;1.60;;;12.90;29.60;;;;;;5033761;28;20901;-66
2021/01/22 10:04:30;;;;;;;16.97;2.50;;;13.00;29.60;;;;;;5033618;28;20230;-66
2021/01/22 10:06:56;;;;;;;2.60;1.80;;;13.00;29.50;;;;;;5033463;28;20816;-67
2021/01/22 10:09:22;;;;;;;5.07;1.80;;;13.10;29.30;;;;;;5033406;28;20176;-67
2021/01/22 10:11:47;;;;;;;1.37;1.27;;;13.30;29.50;;;;;;5033394;28;20588;-66
2021/01/22 10:14:13;;;;;;;2.90;2.00;;;13.10;28.80;;;;;;5033531;28;20173;-66
2021/01/22 10:16:38;;;;;;;4.93;1.63;;;13.20;29.00;;;;;;5033342;28;20208;-66
2021/01/22 10:19:04;;;;;;;4.10;2.27;;;13.30;28.80;;;;;;5032853;28;20177;-67
2021/01/22 10:21:29;;;;;;;3.33;1.47;;;13.30;29.00;;;;;;5033196;28;20176;-66
2021/01/22 10:23:55;;;;;;;1.53;1.30;;;13.20;29.40;;;;;;5033244;28;20197;-67
2021/01/22 10:26:21;;;;;;;2.20;1.60;;;13.00;28.90;;;;;;5033163;28;20299;-67
2021/01/22 10:28:49;;;;;;;5.00;1.70;;;13.20;29.10;;;;;;5019755;28;20181;-69
2021/01/22 10:31:15;;;;;;;1.43;1.40;;;13.10;29.20;;;;;;5013474;28;20407;-66
2021/01/22 10:33:40;;;;;;;14.60;3.37;;;13.10;29.20;;;;;;5013192;28;20447;-67
2021/01/22 10:36:07;;;;;;;4.17;2.00;;;13.10;29.30;;;;;;5013152;28;20432;-66
2021/01/22 10:38:33;;;;;;;1.63;1.53;;;13.20;29.40;;;;;;5013145;28;20169;-67
2021/01/22 10:40:59;;;;;;;1.70;1.57;;;13.20;29.30;;;;;;5013427;28;20466;-68
2021/01/22 10:43:24;;;;;;;3.93;2.10;;;13.00;29.30;;;;;;5013037;28;20503;-66
2021/01/22 10:45:50;;;;;;;2.13;1.80;;;13.10;29.50;;;;;;5013082;28;20219;-66
2021/01/22 10:48:19;;;;;;;4.20;1.53;;;13.20;29.40;;;;;;5028627;28;20206;-67
2021/01/22 10:50:46;;;;;;;4.93;1.70;;;13.30;29.30;;;;;;5032681;28;20843;-66
2021/01/22 10:53:12;;;;;;;1.60;1.50;;;13.40;29.00;;;;;;5032932;28;21100;-67
2021/01/22 10:55:37;;;;;;;4.13;2.23;;;13.40;28.80;;;;;;5032414;28;20454;-67
2021/01/22 10:58:03;;;;;;;1.93;1.70;;;13.60;28.60;;;;;;5032512;28;20997;-67
2021/01/22 11:00:28;;;;;;;2.37;1.70;;;13.60;28.50;;;;;;5032624;28;20169;-67
2021/01/22 11:02:54;;;;;;;3.20;1.60;;;13.60;28.00;;;;;;5032569;28;20211;-67
2021/01/22 11:05:20;;;;;;;2.93;1.80;;;13.60;28.20;;;;;;5032118;28;20188;-68
2021/01/22 11:07:45;;;;;;;9.90;2.90;;;13.70;28.00;;;;;;5032308;28;20200;-67
2021/01/22 11:10:11;;;;;;;1.70;1.60;;;13.80;28.00;;;;;;5032498;28;20184;-67
2021/01/22 11:12:37;;;;;;;9.87;2.97;;;13.80;27.80;;;;;;5032240;28;20177;-67
2021/01/22 11:15:04;;;;;;;4.50;1.60;;;14.00;27.30;;;;;;5032279;28;20412;-66
2021/01/22 11:17:29;;;;;;;3.20;1.87;;;14.00;27.40;;;;;;5022228;28;20554;-66
2021/01/22 11:19:56;;;;;;;6.37;1.80;;;14.10;27.30;;;;;;5019934;28;20424;-66
2021/01/22 11:22:21;;;;;;;2.93;2.40;;;14.00;27.10;;;;;;5021697;28;20180;-66
2021/01/22 11:24:47;;;;;;;1.80;1.70;;;14.10;27.30;;;;;;5022173;28;20432;-66
2021/01/22 11:27:12;;;;;;;5.40;2.07;;;14.00;27.30;;;;;;5019567;28;20288;-65
2021/01/22 11:29:38;;;;;;;7.90;1.70;;;14.10;27.40;;;;;;5021878;28;20192;-66
2021/01/22 11:32:05;;;;;;;2.13;1.77;;;14.10;27.40;;;;;;5029888;28;20185;-66
2021/01/22 11:34:34;;;;;;;9.47;2.80;;;14.20;27.40;;;;;;5031754;28;20169;-66
2021/01/22 11:37:00;;;;;;;2.40;1.60;;;14.10;27.90;;;;;;5031850;28;20546;-66
2021/01/22 11:39:26;;;;;;;2.57;1.47;;;14.00;28.10;;;;;;5031386;28;20502;-66
2021/01/22 11:41:53;;;;;;;1.87;1.77;;;14.00;27.50;;;;;;5028151;28;20173;-67
2021/01/22 11:44:18;;;;;;;1.53;1.27;;;13.90;27.70;;;;;;5020134;28;20235;-66
2021/01/22 11:46:44;;;;;;;1.40;1.40;;;13.80;27.60;;;;;;5021575;28;20498;-67
2021/01/22 11:49:10;;;;;;;9.00;3.07;;;13.90;27.60;;;;;;5019837;28;20228;-67
2021/01/22 11:51:36;;;;;;;4.10;2.20;;;14.00;27.30;;;;;;5020294;28;20181;-66
2021/01/22 11:54:04;;;;;;;2.00;1.90;;;14.10;27.10;;;;;;5021405;28;20597;-66
2021/01/22 11:56:29;;;;;;;1.70;1.60;;;14.00;27.40;;;;;;5018222;28;20756;-66
2021/01/22 11:58:55;;;;;;;3.37;1.50;;;13.70;27.50;;;;;;5019867;28;20494;-65
2021/01/22 12:01:20;;;;;;;6.40;2.03;;;13.90;27.90;;;;;;5018930;28;20586;-67
2021/01/22 12:03:46;;;;;;;1.67;1.53;;;13.90;27.60;;;;;;5018882;28;20188;-66
2021/01/22 12:06:11;;;;;;;1.93;1.70;;;14.00;27.30;;;;;;5018448;28;20195;-68
2021/01/22 12:08:37;;;;;;;2.17;2.03;;;13.90;27.40;;;;;;5020453;28;20202;-67
2021/01/22 12:11:02;;;;;;;2.00;1.70;;;14.00;27.50;;;;;;5019072;28;20165;-65
2021/01/22 12:13:28;;;;;;;1.37;1.27;;;13.90;27.40;;;;;;5020687;28;20176;-65
2021/01/22 12:15:53;;;;;;;3.20;1.90;;;13.80;27.50;;;;;;5019628;28;20200;-67
2021/01/22 12:18:19;;;;;;;3.00;2.00;;;13.80;27.60;;;;;;5019095;28;20550;-66
2021/01/22 12:20:45;;;;;;;3.40;1.63;;;13.90;27.40;;;;;;5020956;28;20173;-66
2021/01/22 12:23:11;;;;;;;2.20;1.80;;;14.00;27.20;;;;;;5019470;28;20264;-66
2021/01/22 12:25:37;;;;;;;2.87;1.40;;;14.00;27.20;;;;;;5019075;28;20770;-65
2021/01/22 12:28:03;;;;;;;3.00;1.80;;;13.90;26.90;;;;;;5020519;28;20497;-66
2021/01/22 12:30:29;;;;;;;3.33;1.30;;;14.00;27.00;;;;;;5019053;28;20915;-66
2021/01/22 12:32:54;;;;;;;1.40;1.30;;;14.00;27.00;;;;;;5019479;28;20242;-67
2021/01/22 12:35:21;;;;;;;1.70;1.23;;;14.10;26.40;;;;;;5017943;28;20175;-66
2021/01/22 12:37:47;;;;;;;1.77;1.20;;;14.00;26.30;;;;;;5018785;28;20181;-66
2021/01/22 12:40:13;;;;;;;1.27;1.23;;;13.90;26.20;;;;;;5019844;28;20422;-66
2021/01/22 12:42:39;;;;;;;2.80;1.53;;;13.90;26.40;;;;;;5020460;28;20420;-66
2021/01/22 12:45:05;;;;;;;7.50;2.30;;;13.90;26.30;;;;;;5018554;28;20423;-68
2021/01/22 12:47:31;;;;;;;3.27;1.20;;;14.00;25.90;;;;;;5019779;28;20208;-67
2021/01/22 12:49:56;;;;;;;4.17;2.93;;;14.00;25.90;;;;;;5019601;28;20413;-66
2021/01/22 12:52:22;;;;;;;1.70;1.60;;;14.10;26.10;;;;;;5017898;28;20255;-68